Aérodrome :
LOGIN :

S'inscrire | Disclaimer

   EN    FR    IT 

 










Légende :    VFR   VFR Marginal   IFR   IFR Intensif   IFR Très Intensif
Visi : 
Plafond : 
>= 8 km
>= 3000ft
5 à 8 km
1000 à 3000 ft
1500m à 5 km
500 à 1000 ft
800 à 1500m
200 à 500 ft
< 800m
< 200 ft
Symboles :   Orages  Brouillard  Fortes neiges  Fortes précipitations  Vent > 20 kt
SIGMETs :   Divers  Orages  Givrage  Turbulence  Onde Orograph.  Cendres Volcan.







- Altitude de l'aérodrome : 94 ft
- Code IATA : QLT


LIRL - Latina Casale (military)

DERNIER METAR :
  • 231455Z 21008KT 9999 FEW020 SCT030 21/12 Q1016 RMK BKN MON LIB NC VIS MIN 9999 WIND THR12 23006KT WIND THR30 22006KT BLU

METARs EXPIRÉS :
  • 231355Z 21004KT 9999 FEW020 FEW030CB SCT040 21/13 Q1015 RMK BKN MON LIB NC VIS MIN 9999 WIND THR12 26003KT WIND THR30 19004KT BLU
  • 231255Z 16004KT 9999 TS SCT020 FEW030CB 21/13 Q1016

TAF TAF LIRL
Valide du 23 à 15h jusqu'au 24 à 00h UTC


231400Z 2315/2324 VRB03KT 9999 SCT030
TEMPO 2315/2318 25007KT TSRA FEW025CB SCT030
Pas de NOTAMs connus pour ce terrain.



MET'MAP, la Météo Aéronautique d'un coup d'oeil ! - Copyright ORBIFLY Décembre 2007 - Disclaimer

ORBIFLY MET'MAP TEAM :

Programmation & Développement : Alexandra Zaïnal
Conception & Développement : Baudouin d'Aumeries
Co-Programmation & Développement : Marc-Olivier Méhu
Soutien technique & logistique : Manuel Goepfert

Contact : metmap@orbifly.com




SOURCES & CREDITS :

   NOAA